sensor_id;sensor_type;location;lat;lon;timestamp;temperature;humidity
29917;DHT22;16786;49.466;11.068;2023-09-30T00:02:04;17.00;99.90
29917;DHT22;16786;49.466;11.068;2023-09-30T00:04:32;17.00;99.90
29917;DHT22;16786;49.466;11.068;2023-09-30T00:06:59;17.00;99.90
29917;DHT22;16786;49.466;11.068;2023-09-30T00:09:27;16.90;99.90
29917;DHT22;16786;49.466;11.068;2023-09-30T00:11:54;16.80;99.90
29917;DHT22;16786;49.466;11.068;2023-09-30T00:14:22;16.80;99.90
29917;DHT22;16786;49.466;11.068;2023-09-30T00:16:50;16.80;99.90
29917;DHT22;16786;49.466;11.068;2023-09-30T00:19:18;16.80;99.90
29917;DHT22;16786;49.466;11.068;2023-09-30T00:21:45;16.80;99.90
29917;DHT22;16786;49.466;11.068;2023-09-30T00:24:12;16.70;99.90
29917;DHT22;16786;49.466;11.068;2023-09-30T00:26:40;16.70;99.90
29917;DHT22;16786;49.466;11.068;2023-09-30T00:29:08;16.70;99.90
29917;DHT22;16786;49.466;11.068;2023-09-30T00:31:37;16.60;99.90
29917;DHT22;16786;49.466;11.068;2023-09-30T00:34:04;16.60;99.90
29917;DHT22;16786;49.466;11.068;2023-09-30T00:36:32;16.60;99.90
29917;DHT22;16786;49.466;11.068;2023-09-30T00:38:59;16.60;99.90
29917;DHT22;16786;49.466;11.068;2023-09-30T00:41:26;16.50;99.90
29917;DHT22;16786;49.466;11.068;2023-09-30T00:43:54;16.60;99.90
29917;DHT22;16786;49.466;11.068;2023-09-30T00:46:40;16.60;99.90
29917;DHT22;16786;49.466;11.068;2023-09-30T00:49:08;16.70;99.90
29917;DHT22;16786;49.466;11.068;2023-09-30T00:51:37;16.70;99.90
29917;DHT22;16786;49.466;11.068;2023-09-30T00:54:05;16.80;99.90
29917;DHT22;16786;49.466;11.068;2023-09-30T00:56:34;16.80;99.90
29917;DHT22;16786;49.466;11.068;2023-09-30T00:59:03;16.90;99.90
29917;DHT22;16786;49.466;11.068;2023-09-30T01:01:31;16.90;99.90
29917;DHT22;16786;49.466;11.068;2023-09-30T01:04:01;17.00;99.90
29917;DHT22;16786;49.466;11.068;2023-09-30T01:06:29;17.00;99.90
29917;DHT22;16786;49.466;11.068;2023-09-30T01:08:57;17.10;99.90
29917;DHT22;16786;49.466;11.068;2023-09-30T01:11:24;17.00;99.90
29917;DHT22;16786;49.466;11.068;2023-09-30T01:13:53;17.10;99.90
29917;DHT22;16786;49.466;11.068;2023-09-30T01:16:21;17.10;99.90
29917;DHT22;16786;49.466;11.068;2023-09-30T01:18:48;17.10;99.90
29917;DHT22;16786;49.466;11.068;2023-09-30T01:21:16;17.10;99.90
29917;DHT22;16786;49.466;11.068;2023-09-30T01:23:45;17.10;99.90
29917;DHT22;16786;49.466;11.068;2023-09-30T01:26:13;17.10;99.90
29917;DHT22;16786;49.466;11.068;2023-09-30T01:28:41;17.10;99.90
29917;DHT22;16786;49.466;11.068;2023-09-30T01:31:09;17.10;99.90
29917;DHT22;16786;49.466;11.068;2023-09-30T01:33:36;17.10;99.90
29917;DHT22;16786;49.466;11.068;2023-09-30T01:36:04;17.10;99.90
29917;DHT22;16786;49.466;11.068;2023-09-30T01:38:32;17.10;99.90
29917;DHT22;16786;49.466;11.068;2023-09-30T01:41:00;17.10;99.90
29917;DHT22;16786;49.466;11.068;2023-09-30T01:43:28;17.10;99.90
29917;DHT22;16786;49.466;11.068;2023-09-30T01:45:55;17.10;99.90
29917;DHT22;16786;49.466;11.068;2023-09-30T01:48:23;17.20;99.90
29917;DHT22;16786;49.466;11.068;2023-09-30T01:50:51;17.10;99.90
29917;DHT22;16786;49.466;11.068;2023-09-30T01:53:19;17.20;99.90
29917;DHT22;16786;49.466;11.068;2023-09-30T01:55:46;17.20;99.90
29917;DHT22;16786;49.466;11.068;2023-09-30T01:58:15;17.30;99.90
29917;DHT22;16786;49.466;11.068;2023-09-30T02:00:42;17.30;99.90
29917;DHT22;16786;49.466;11.068;2023-09-30T02:03:09;17.30;99.90
29917;DHT22;16786;49.466;11.068;2023-09-30T02:05:39;17.30;99.90
29917;DHT22;16786;49.466;11.068;2023-09-30T02:08:06;17.30;99.90
29917;DHT22;16786;49.466;11.068;2023-09-30T02:10:34;17.30;99.90
29917;DHT22;16786;49.466;11.068;2023-09-30T02:13:01;17.30;99.90
29917;DHT22;16786;49.466;11.068;2023-09-30T02:15:29;17.30;99.90
29917;DHT22;16786;49.466;11.068;2023-09-30T02:17:56;17.30;99.90
29917;DHT22;16786;49.466;11.068;2023-09-30T02:20:23;17.40;99.90
29917;DHT22;16786;49.466;11.068;2023-09-30T02:22:53;17.30;99.90
29917;DHT22;16786;49.466;11.068;2023-09-30T02:25:21;17.30;99.90
29917;DHT22;16786;49.466;11.068;2023-09-30T02:27:50;17.20;99.90
29917;DHT22;16786;49.466;11.068;2023-09-30T02:30:17;17.30;99.90
29917;DHT22;16786;49.466;11.068;2023-09-30T02:32:45;17.20;99.90
29917;DHT22;16786;49.466;11.068;2023-09-30T02:35:15;17.20;99.90
29917;DHT22;16786;49.466;11.068;2023-09-30T02:37:43;17.10;99.90
29917;DHT22;16786;49.466;11.068;2023-09-30T02:40:10;17.10;99.90
29917;DHT22;16786;49.466;11.068;2023-09-30T02:42:40;17.00;99.90
29917;DHT22;16786;49.466;11.068;2023-09-30T02:45:08;16.90;99.90
29917;DHT22;16786;49.466;11.068;2023-09-30T02:47:38;16.90;99.90
29917;DHT22;16786;49.466;11.068;2023-09-30T02:50:08;16.90;99.90
29917;DHT22;16786;49.466;11.068;2023-09-30T02:52:35;16.80;99.90
29917;DHT22;16786;49.466;11.068;2023-09-30T02:55:03;16.80;99.90
29917;DHT22;16786;49.466;11.068;2023-09-30T02:57:31;16.80;99.90
29917;DHT22;16786;49.466;11.068;2023-09-30T02:59:58;16.80;99.90
29917;DHT22;16786;49.466;11.068;2023-09-30T03:02:39;16.80;99.90
29917;DHT22;16786;49.466;11.068;2023-09-30T03:05:06;16.80;99.90
29917;DHT22;16786;49.466;11.068;2023-09-30T03:07:34;16.80;99.90
29917;DHT22;16786;49.466;11.068;2023-09-30T03:10:01;16.70;99.90
29917;DHT22;16786;49.466;11.068;2023-09-30T03:12:31;16.70;99.90
29917;DHT22;16786;49.466;11.068;2023-09-30T03:14:59;16.60;99.90
29917;DHT22;16786;49.466;11.068;2023-09-30T03:17:26;16.50;99.90
29917;DHT22;16786;49.466;11.068;2023-09-30T03:19:53;16.50;99.90
29917;DHT22;16786;49.466;11.068;2023-09-30T03:22:24;16.50;99.90
29917;DHT22;16786;49.466;11.068;2023-09-30T03:24:56;16.30;99.90
29917;DHT22;16786;49.466;11.068;2023-09-30T03:27:24;16.10;99.90
29917;DHT22;16786;49.466;11.068;2023-09-30T03:29:52;15.90;99.90
29917;DHT22;16786;49.466;11.068;2023-09-30T03:32:20;15.90;99.90
29917;DHT22;16786;49.466;11.068;2023-09-30T03:34:47;15.80;99.90
29917;DHT22;16786;49.466;11.068;2023-09-30T03:37:16;15.80;99.90
29917;DHT22;16786;49.466;11.068;2023-09-30T03:39:44;15.80;99.90
29917;DHT22;16786;49.466;11.068;2023-09-30T03:42:11;15.70;99.90
29917;DHT22;16786;49.466;11.068;2023-09-30T03:44:38;15.70;99.90
29917;DHT22;16786;49.466;11.068;2023-09-30T03:47:05;15.60;99.90
29917;DHT22;16786;49.466;11.068;2023-09-30T03:49:34;15.60;99.90
29917;DHT22;16786;49.466;11.068;2023-09-30T03:52:01;15.40;99.90
29917;DHT22;16786;49.466;11.068;2023-09-30T03:54:29;15.40;99.90
29917;DHT22;16786;49.466;11.068;2023-09-30T03:56:57;15.30;99.90
29917;DHT22;16786;49.466;11.068;2023-09-30T03:59:24;15.20;99.90
29917;DHT22;16786;49.466;11.068;2023-09-30T04:01:53;15.20;99.90
29917;DHT22;16786;49.466;11.068;2023-09-30T04:04:25;15.10;99.90
29917;DHT22;16786;49.466;11.068;2023-09-30T04:06:53;15.10;99.90
29917;DHT22;16786;49.466;11.068;2023-09-30T04:09:20;15.00;99.90
29917;DHT22;16786;49.466;11.068;2023-09-30T04:11:47;15.00;99.90
29917;DHT22;16786;49.466;11.068;2023-09-30T04:14:16;15.00;99.90
29917;DHT22;16786;49.466;11.068;2023-09-30T04:16:44;14.90;99.90
29917;DHT22;16786;49.466;11.068;2023-09-30T04:19:11;14.90;99.90
29917;DHT22;16786;49.466;11.068;2023-09-30T04:21:39;14.90;99.90
29917;DHT22;16786;49.466;11.068;2023-09-30T04:24:07;14.70;99.90
29917;DHT22;16786;49.466;11.068;2023-09-30T04:26:34;14.70;99.90
29917;DHT22;16786;49.466;11.068;2023-09-30T04:29:01;14.60;99.90
29917;DHT22;16786;49.466;11.068;2023-09-30T04:31:29;14.70;99.90
29917;DHT22;16786;49.466;11.068;2023-09-30T04:33:57;14.70;99.90
29917;DHT22;16786;49.466;11.068;2023-09-30T04:36:25;14.70;99.90
29917;DHT22;16786;49.466;11.068;2023-09-30T04:38:52;14.70;99.90
29917;DHT22;16786;49.466;11.068;2023-09-30T04:41:20;14.80;99.90
29917;DHT22;16786;49.466;11.068;2023-09-30T04:43:48;14.70;99.90
29917;DHT22;16786;49.466;11.068;2023-09-30T04:46:16;14.80;99.90
29917;DHT22;16786;49.466;11.068;2023-09-30T04:48:47;14.80;99.90
29917;DHT22;16786;49.466;11.068;2023-09-30T04:51:15;14.80;99.90
29917;DHT22;16786;49.466;11.068;2023-09-30T04:53:46;14.80;99.90
29917;DHT22;16786;49.466;11.068;2023-09-30T04:56:13;14.80;99.90
29917;DHT22;16786;49.466;11.068;2023-09-30T04:58:41;14.90;99.90
29917;DHT22;16786;49.466;11.068;2023-09-30T05:01:09;14.80;99.90
29917;DHT22;16786;49.466;11.068;2023-09-30T05:03:36;14.80;99.90
29917;DHT22;16786;49.466;11.068;2023-09-30T05:06:04;14.80;99.90
29917;DHT22;16786;49.466;11.068;2023-09-30T05:08:32;14.80;99.90
29917;DHT22;16786;49.466;11.068;2023-09-30T05:10:59;14.80;99.90
29917;DHT22;16786;49.466;11.068;2023-09-30T05:13:27;14.70;99.90
29917;DHT22;16786;49.466;11.068;2023-09-30T05:15:55;14.70;99.90
29917;DHT22;16786;49.466;11.068;2023-09-30T05:18:22;14.70;99.90
29917;DHT22;16786;49.466;11.068;2023-09-30T05:20:51;14.60;99.90
29917;DHT22;16786;49.466;11.068;2023-09-30T05:23:20;14.60;99.90
29917;DHT22;16786;49.466;11.068;2023-09-30T05:25:47;14.50;99.90
29917;DHT22;16786;49.466;11.068;2023-09-30T05:28:15;14.50;99.90
29917;DHT22;16786;49.466;11.068;2023-09-30T05:30:42;14.50;99.90
29917;DHT22;16786;49.466;11.068;2023-09-30T05:33:10;14.50;99.90
29917;DHT22;16786;49.466;11.068;2023-09-30T05:35:41;14.50;99.90
29917;DHT22;16786;49.466;11.068;2023-09-30T05:38:09;14.50;99.90
29917;DHT22;16786;49.466;11.068;2023-09-30T05:40:38;14.50;99.90
29917;DHT22;16786;49.466;11.068;2023-09-30T05:43:05;14.50;99.90
29917;DHT22;16786;49.466;11.068;2023-09-30T05:45:33;14.40;99.90
29917;DHT22;16786;49.466;11.068;2023-09-30T05:48:04;14.50;99.90
29917;DHT22;16786;49.466;11.068;2023-09-30T05:50:35;14.50;99.90
29917;DHT22;16786;49.466;11.068;2023-09-30T05:53:04;14.50;99.90
29917;DHT22;16786;49.466;11.068;2023-09-30T05:55:34;14.50;99.90
29917;DHT22;16786;49.466;11.068;2023-09-30T05:58:01;14.50;99.90
29917;DHT22;16786;49.466;11.068;2023-09-30T06:00:29;14.50;99.90
29917;DHT22;16786;49.466;11.068;2023-09-30T06:02:58;14.50;99.90
29917;DHT22;16786;49.466;11.068;2023-09-30T06:05:27;14.50;99.90
29917;DHT22;16786;49.466;11.068;2023-09-30T06:07:59;14.60;99.90
29917;DHT22;16786;49.466;11.068;2023-09-30T06:10:27;14.60;99.90
29917;DHT22;16786;49.466;11.068;2023-09-30T06:12:54;14.60;99.90
29917;DHT22;16786;49.466;11.068;2023-09-30T06:15:24;14.70;99.90
29917;DHT22;16786;49.466;11.068;2023-09-30T06:17:55;14.70;99.90
29917;DHT22;16786;49.466;11.068;2023-09-30T06:20:23;14.90;99.90
29917;DHT22;16786;49.466;11.068;2023-09-30T06:22:54;15.10;99.90
29917;DHT22;16786;49.466;11.068;2023-09-30T06:25:22;15.20;99.90
29917;DHT22;16786;49.466;11.068;2023-09-30T06:27:52;15.20;99.90
29917;DHT22;16786;49.466;11.068;2023-09-30T06:30:19;15.20;99.90
29917;DHT22;16786;49.466;11.068;2023-09-30T06:32:48;15.30;99.90
29917;DHT22;16786;49.466;11.068;2023-09-30T06:35:16;15.30;99.90
29917;DHT22;16786;49.466;11.068;2023-09-30T06:37:48;15.20;99.90
29917;DHT22;16786;49.466;11.068;2023-09-30T06:40:15;15.40;99.90
29917;DHT22;16786;49.466;11.068;2023-09-30T06:42:42;15.40;99.90
29917;DHT22;16786;49.466;11.068;2023-09-30T06:45:10;15.40;99.90
29917;DHT22;16786;49.466;11.068;2023-09-30T06:47:40;15.50;99.90
29917;DHT22;16786;49.466;11.068;2023-09-30T06:50:10;15.60;99.90
29917;DHT22;16786;49.466;11.068;2023-09-30T06:52:41;15.60;99.90
29917;DHT22;16786;49.466;11.068;2023-09-30T06:55:10;15.70;99.90
29917;DHT22;16786;49.466;11.068;2023-09-30T06:57:38;15.80;99.90
29917;DHT22;16786;49.466;11.068;2023-09-30T07:00:12;15.80;99.90
29917;DHT22;16786;49.466;11.068;2023-09-30T07:02:41;15.80;99.90
29917;DHT22;16786;49.466;11.068;2023-09-30T07:05:11;15.80;99.90
29917;DHT22;16786;49.466;11.068;2023-09-30T07:07:40;15.80;99.90
29917;DHT22;16786;49.466;11.068;2023-09-30T07:10:10;15.80;99.90
29917;DHT22;16786;49.466;11.068;2023-09-30T07:12:38;15.90;99.90
29917;DHT22;16786;49.466;11.068;2023-09-30T07:15:07;16.00;99.90
29917;DHT22;16786;49.466;11.068;2023-09-30T07:17:35;16.00;99.90
29917;DHT22;16786;49.466;11.068;2023-09-30T07:20:03;16.10;99.90
29917;DHT22;16786;49.466;11.068;2023-09-30T07:22:33;16.10;99.90
29917;DHT22;16786;49.466;11.068;2023-09-30T07:25:15;16.10;99.90
29917;DHT22;16786;49.466;11.068;2023-09-30T07:27:44;16.20;99.90
29917;DHT22;16786;49.466;11.068;2023-09-30T07:30:13;16.30;99.90
29917;DHT22;16786;49.466;11.068;2023-09-30T07:32:43;16.20;99.90
29917;DHT22;16786;49.466;11.068;2023-09-30T07:35:12;16.10;99.90
29917;DHT22;16786;49.466;11.068;2023-09-30T07:37:41;16.10;99.90
29917;DHT22;16786;49.466;11.068;2023-09-30T07:40:09;16.10;99.90
29917;DHT22;16786;49.466;11.068;2023-09-30T07:42:37;16.00;99.90
29917;DHT22;16786;49.466;11.068;2023-09-30T07:45:05;15.90;99.90
29917;DHT22;16786;49.466;11.068;2023-09-30T07:47:32;15.90;99.90
29917;DHT22;16786;49.466;11.068;2023-09-30T07:50:02;16.00;99.90
29917;DHT22;16786;49.466;11.068;2023-09-30T07:52:33;16.10;99.90
29917;DHT22;16786;49.466;11.068;2023-09-30T07:55:00;16.00;99.90
29917;DHT22;16786;49.466;11.068;2023-09-30T07:57:28;16.10;99.90
29917;DHT22;16786;49.466;11.068;2023-09-30T07:59:55;16.20;99.90
29917;DHT22;16786;49.466;11.068;2023-09-30T08:02:22;16.40;99.90
29917;DHT22;16786;49.466;11.068;2023-09-30T08:04:51;16.60;99.90
29917;DHT22;16786;49.466;11.068;2023-09-30T08:07:19;16.70;99.90
29917;DHT22;16786;49.466;11.068;2023-09-30T08:09:47;16.60;99.90
29917;DHT22;16786;49.466;11.068;2023-09-30T08:12:15;16.70;99.90
29917;DHT22;16786;49.466;11.068;2023-09-30T08:14:42;16.60;99.90
29917;DHT22;16786;49.466;11.068;2023-09-30T08:17:12;16.70;99.90
29917;DHT22;16786;49.466;11.068;2023-09-30T08:19:39;16.90;99.90
29917;DHT22;16786;49.466;11.068;2023-09-30T08:22:07;17.20;99.90
29917;DHT22;16786;49.466;11.068;2023-09-30T08:24:34;17.30;99.90
29917;DHT22;16786;49.466;11.068;2023-09-30T08:27:02;17.20;99.90
29917;DHT22;16786;49.466;11.068;2023-09-30T08:29:29;17.50;99.90
29917;DHT22;16786;49.466;11.068;2023-09-30T08:31:56;17.50;99.90
29917;DHT22;16786;49.466;11.068;2023-09-30T08:34:23;17.60;99.90
29917;DHT22;16786;49.466;11.068;2023-09-30T08:36:51;17.80;99.90
29917;DHT22;16786;49.466;11.068;2023-09-30T08:39:18;17.90;99.90
29917;DHT22;16786;49.466;11.068;2023-09-30T08:41:45;18.10;99.90
29917;DHT22;16786;49.466;11.068;2023-09-30T08:44:13;17.90;99.90
29917;DHT22;16786;49.466;11.068;2023-09-30T08:46:41;17.90;99.90
29917;DHT22;16786;49.466;11.068;2023-09-30T08:49:09;18.00;99.90
29917;DHT22;16786;49.466;11.068;2023-09-30T08:51:38;17.70;99.90
29917;DHT22;16786;49.466;11.068;2023-09-30T08:54:06;17.80;99.90
29917;DHT22;16786;49.466;11.068;2023-09-30T08:56:34;17.80;99.90
29917;DHT22;16786;49.466;11.068;2023-09-30T08:59:02;17.80;99.90
29917;DHT22;16786;49.466;11.068;2023-09-30T09:01:31;17.90;99.90
29917;DHT22;16786;49.466;11.068;2023-09-30T09:03:58;18.00;99.90
29917;DHT22;16786;49.466;11.068;2023-09-30T09:06:26;18.50;99.90
29917;DHT22;16786;49.466;11.068;2023-09-30T09:08:53;18.70;99.90
29917;DHT22;16786;49.466;11.068;2023-09-30T09:11:23;18.80;99.90
29917;DHT22;16786;49.466;11.068;2023-09-30T09:13:52;19.20;99.90
29917;DHT22;16786;49.466;11.068;2023-09-30T09:16:23;19.40;99.90
29917;DHT22;16786;49.466;11.068;2023-09-30T09:18:51;19.40;99.90
29917;DHT22;16786;49.466;11.068;2023-09-30T09:21:24;19.50;99.90
29917;DHT22;16786;49.466;11.068;2023-09-30T09:23:55;19.80;99.90
29917;DHT22;16786;49.466;11.068;2023-09-30T09:26:30;19.90;99.90
29917;DHT22;16786;49.466;11.068;2023-09-30T09:29:01;20.10;99.90
29917;DHT22;16786;49.466;11.068;2023-09-30T09:31:31;20.30;99.90
29917;DHT22;16786;49.466;11.068;2023-09-30T09:33:59;20.10;99.90
29917;DHT22;16786;49.466;11.068;2023-09-30T09:36:40;20.50;99.90
29917;DHT22;16786;49.466;11.068;2023-09-30T09:39:09;20.20;99.90
29917;DHT22;16786;49.466;11.068;2023-09-30T09:41:50;20.30;99.90
29917;DHT22;16786;49.466;11.068;2023-09-30T09:44:20;21.00;99.90
29917;DHT22;16786;49.466;11.068;2023-09-30T09:46:49;21.40;99.90
29917;DHT22;16786;49.466;11.068;2023-09-30T09:49:18;21.70;99.90
29917;DHT22;16786;49.466;11.068;2023-09-30T09:51:46;21.30;99.90
29917;DHT22;16786;49.466;11.068;2023-09-30T09:54:15;21.50;99.90
29917;DHT22;16786;49.466;11.068;2023-09-30T09:56:46;21.10;99.90
29917;DHT22;16786;49.466;11.068;2023-09-30T09:59:13;20.80;99.90
29917;DHT22;16786;49.466;11.068;2023-09-30T10:01:41;21.30;99.90
29917;DHT22;16786;49.466;11.068;2023-09-30T10:04:12;21.50;99.90
29917;DHT22;16786;49.466;11.068;2023-09-30T10:06:46;21.50;99.90
29917;DHT22;16786;49.466;11.068;2023-09-30T10:09:16;21.60;99.90
29917;DHT22;16786;49.466;11.068;2023-09-30T10:11:45;21.70;99.90
29917;DHT22;16786;49.466;11.068;2023-09-30T10:14:31;21.40;99.90
29917;DHT22;16786;49.466;11.068;2023-09-30T10:17:03;21.30;99.90
29917;DHT22;16786;49.466;11.068;2023-09-30T10:19:31;21.20;99.90
29917;DHT22;16786;49.466;11.068;2023-09-30T10:24:45;20.50;99.90
29917;DHT22;16786;49.466;11.068;2023-09-30T10:32:21;20.20;99.90
29917;DHT22;16786;49.466;11.068;2023-09-30T10:34:49;20.00;99.90
29917;DHT22;16786;49.466;11.068;2023-09-30T10:37:20;20.20;99.90
29917;DHT22;16786;49.466;11.068;2023-09-30T10:39:56;20.20;99.90
29917;DHT22;16786;49.466;11.068;2023-09-30T10:42:46;20.20;99.90
29917;DHT22;16786;49.466;11.068;2023-09-30T10:45:52;20.10;99.90
29917;DHT22;16786;49.466;11.068;2023-09-30T10:50:57;20.00;99.90
29917;DHT22;16786;49.466;11.068;2023-09-30T10:53:28;20.10;99.90
29917;DHT22;16786;49.466;11.068;2023-09-30T10:55:57;20.20;99.90
29917;DHT22;16786;49.466;11.068;2023-09-30T10:58:41;20.40;99.90
29917;DHT22;16786;49.466;11.068;2023-09-30T11:01:09;20.40;99.90
29917;DHT22;16786;49.466;11.068;2023-09-30T11:03:37;20.50;99.90
29917;DHT22;16786;49.466;11.068;2023-09-30T11:06:04;20.60;99.90
29917;DHT22;16786;49.466;11.068;2023-09-30T11:08:35;20.90;99.90
29917;DHT22;16786;49.466;11.068;2023-09-30T11:11:03;20.80;99.90
29917;DHT22;16786;49.466;11.068;2023-09-30T11:13:33;20.80;99.90
29917;DHT22;16786;49.466;11.068;2023-09-30T11:16:04;20.90;99.90
29917;DHT22;16786;49.466;11.068;2023-09-30T11:18:37;20.50;99.90
29917;DHT22;16786;49.466;11.068;2023-09-30T11:21:08;20.70;99.90
29917;DHT22;16786;49.466;11.068;2023-09-30T11:23:37;20.90;99.90
29917;DHT22;16786;49.466;11.068;2023-09-30T11:26:04;21.10;99.90
29917;DHT22;16786;49.466;11.068;2023-09-30T11:28:42;21.00;99.90
29917;DHT22;16786;49.466;11.068;2023-09-30T11:31:11;21.30;99.90
29917;DHT22;16786;49.466;11.068;2023-09-30T11:33:53;21.20;99.90
29917;DHT22;16786;49.466;11.068;2023-09-30T11:36:23;21.20;99.90
29917;DHT22;16786;49.466;11.068;2023-09-30T11:38:51;21.30;99.90
29917;DHT22;16786;49.466;11.068;2023-09-30T11:41:22;21.80;99.90
29917;DHT22;16786;49.466;11.068;2023-09-30T11:44:07;21.60;99.90
29917;DHT22;16786;49.466;11.068;2023-09-30T11:49:37;21.50;99.90
29917;DHT22;16786;49.466;11.068;2023-09-30T11:52:12;21.80;99.90
29917;DHT22;16786;49.466;11.068;2023-09-30T11:54:44;21.90;99.90
29917;DHT22;16786;49.466;11.068;2023-09-30T11:57:14;21.70;99.90
29917;DHT22;16786;49.466;11.068;2023-09-30T11:59:46;21.80;99.90
29917;DHT22;16786;49.466;11.068;2023-09-30T12:02:15;21.90;99.90
29917;DHT22;16786;49.466;11.068;2023-09-30T12:04:45;22.10;99.90
29917;DHT22;16786;49.466;11.068;2023-09-30T12:07:15;22.10;99.90
29917;DHT22;16786;49.466;11.068;2023-09-30T12:09:42;22.10;99.90
29917;DHT22;16786;49.466;11.068;2023-09-30T12:12:10;22.50;99.90
29917;DHT22;16786;49.466;11.068;2023-09-30T12:14:39;22.40;99.90
29917;DHT22;16786;49.466;11.068;2023-09-30T12:17:07;22.90;99.90
29917;DHT22;16786;49.466;11.068;2023-09-30T12:19:40;23.00;99.90
29917;DHT22;16786;49.466;11.068;2023-09-30T12:22:10;23.70;99.90
29917;DHT22;16786;49.466;11.068;2023-09-30T12:24:38;23.90;99.90
29917;DHT22;16786;49.466;11.068;2023-09-30T12:27:07;24.20;99.90
29917;DHT22;16786;49.466;11.068;2023-09-30T12:29:34;24.70;99.90
29917;DHT22;16786;49.466;11.068;2023-09-30T12:32:01;24.60;99.90
29917;DHT22;16786;49.466;11.068;2023-09-30T12:34:29;24.70;99.90
29917;DHT22;16786;49.466;11.068;2023-09-30T12:36:57;25.40;99.90
29917;DHT22;16786;49.466;11.068;2023-09-30T12:39:25;26.30;99.90
29917;DHT22;16786;49.466;11.068;2023-09-30T12:41:54;27.20;99.90
29917;DHT22;16786;49.466;11.068;2023-09-30T12:44:21;27.50;99.90
29917;DHT22;16786;49.466;11.068;2023-09-30T12:46:50;27.10;99.90
29917;DHT22;16786;49.466;11.068;2023-09-30T12:49:18;27.90;99.90
29917;DHT22;16786;49.466;11.068;2023-09-30T12:51:46;28.80;98.10
29917;DHT22;16786;49.466;11.068;2023-09-30T12:54:13;29.80;96.00
29917;DHT22;16786;49.466;11.068;2023-09-30T12:56:42;30.70;92.70
29917;DHT22;16786;49.466;11.068;2023-09-30T12:59:09;31.30;90.20
29917;DHT22;16786;49.466;11.068;2023-09-30T13:01:36;32.00;86.00
29917;DHT22;16786;49.466;11.068;2023-09-30T13:04:04;32.40;82.50
29917;DHT22;16786;49.466;11.068;2023-09-30T13:06:35;32.50;79.80
29917;DHT22;16786;49.466;11.068;2023-09-30T13:09:04;32.30;78.40
29917;DHT22;16786;49.466;11.068;2023-09-30T13:11:36;33.40;75.30
29917;DHT22;16786;49.466;11.068;2023-09-30T13:14:04;33.40;72.80
29917;DHT22;16786;49.466;11.068;2023-09-30T13:16:32;33.70;71.90
29917;DHT22;16786;49.466;11.068;2023-09-30T13:18:59;32.90;71.30
29917;DHT22;16786;49.466;11.068;2023-09-30T13:21:27;33.70;68.00
29917;DHT22;16786;49.466;11.068;2023-09-30T13:23:55;33.50;69.10
29917;DHT22;16786;49.466;11.068;2023-09-30T13:26:22;35.30;67.20
29917;DHT22;16786;49.466;11.068;2023-09-30T13:28:49;34.60;64.10
29917;DHT22;16786;49.466;11.068;2023-09-30T13:31:16;33.80;64.60
29917;DHT22;16786;49.466;11.068;2023-09-30T13:33:44;33.50;65.60
29917;DHT22;16786;49.466;11.068;2023-09-30T13:36:11;33.90;64.40
29917;DHT22;16786;49.466;11.068;2023-09-30T13:38:39;34.20;64.40
29917;DHT22;16786;49.466;11.068;2023-09-30T13:41:06;34.70;62.30
29917;DHT22;16786;49.466;11.068;2023-09-30T13:43:33;34.30;62.20
29917;DHT22;16786;49.466;11.068;2023-09-30T13:46:04;33.70;62.30
29917;DHT22;16786;49.466;11.068;2023-09-30T13:48:34;34.00;61.20
29917;DHT22;16786;49.466;11.068;2023-09-30T13:51:11;33.70;61.10
29917;DHT22;16786;49.466;11.068;2023-09-30T13:53:38;33.20;62.90
29917;DHT22;16786;49.466;11.068;2023-09-30T13:56:06;33.40;61.70
29917;DHT22;16786;49.466;11.068;2023-09-30T13:58:34;34.30;60.40
29917;DHT22;16786;49.466;11.068;2023-09-30T14:01:01;33.80;60.50
29917;DHT22;16786;49.466;11.068;2023-09-30T14:03:29;34.10;59.10
29917;DHT22;16786;49.466;11.068;2023-09-30T14:05:57;33.30;59.90
29917;DHT22;16786;49.466;11.068;2023-09-30T14:08:24;31.60;62.50
29917;DHT22;16786;49.466;11.068;2023-09-30T14:10:52;31.30;63.60
29917;DHT22;16786;49.466;11.068;2023-09-30T14:13:20;30.60;65.30
29917;DHT22;16786;49.466;11.068;2023-09-30T14:15:47;29.50;66.90
29917;DHT22;16786;49.466;11.068;2023-09-30T14:18:14;29.50;67.40
29917;DHT22;16786;49.466;11.068;2023-09-30T14:20:42;29.40;68.30
29917;DHT22;16786;49.466;11.068;2023-09-30T14:23:09;29.30;68.80
29917;DHT22;16786;49.466;11.068;2023-09-30T14:25:37;29.40;68.90
29917;DHT22;16786;49.466;11.068;2023-09-30T14:28:05;29.60;68.70
29917;DHT22;16786;49.466;11.068;2023-09-30T14:30:32;29.80;68.20
29917;DHT22;16786;49.466;11.068;2023-09-30T14:33:01;30.50;68.00
29917;DHT22;16786;49.466;11.068;2023-09-30T14:35:28;31.00;66.60
29917;DHT22;16786;49.466;11.068;2023-09-30T14:37:56;31.70;65.70
29917;DHT22;16786;49.466;11.068;2023-09-30T14:40:24;31.80;64.10
29917;DHT22;16786;49.466;11.068;2023-09-30T14:42:51;30.90;65.00
29917;DHT22;16786;49.466;11.068;2023-09-30T14:45:20;30.40;65.70
29917;DHT22;16786;49.466;11.068;2023-09-30T14:47:49;30.20;66.30
29917;DHT22;16786;49.466;11.068;2023-09-30T14:50:16;29.80;67.10
29917;DHT22;16786;49.466;11.068;2023-09-30T14:52:43;29.80;67.70
29917;DHT22;16786;49.466;11.068;2023-09-30T14:55:11;29.00;68.40
29917;DHT22;16786;49.466;11.068;2023-09-30T14:57:38;28.50;70.60
29917;DHT22;16786;49.466;11.068;2023-09-30T15:00:06;27.70;71.10
29917;DHT22;16786;49.466;11.068;2023-09-30T15:02:34;27.50;71.80
29917;DHT22;16786;49.466;11.068;2023-09-30T15:05:01;27.70;71.70
29917;DHT22;16786;49.466;11.068;2023-09-30T15:07:28;27.30;72.70
29917;DHT22;16786;49.466;11.068;2023-09-30T15:09:55;27.50;72.60
29917;DHT22;16786;49.466;11.068;2023-09-30T15:12:23;27.60;72.50
29917;DHT22;16786;49.466;11.068;2023-09-30T15:14:50;27.20;73.30
29917;DHT22;16786;49.466;11.068;2023-09-30T15:17:19;27.00;73.50
29917;DHT22;16786;49.466;11.068;2023-09-30T15:19:46;27.60;73.30
29917;DHT22;16786;49.466;11.068;2023-09-30T15:22:13;27.80;73.10
29917;DHT22;16786;49.466;11.068;2023-09-30T15:24:41;27.70;72.30
29917;DHT22;16786;49.466;11.068;2023-09-30T15:27:09;27.90;72.20
29917;DHT22;16786;49.466;11.068;2023-09-30T15:29:37;27.50;73.00
29917;DHT22;16786;49.466;11.068;2023-09-30T15:32:04;27.10;74.30
29917;DHT22;16786;49.466;11.068;2023-09-30T15:34:32;27.10;74.50
29917;DHT22;16786;49.466;11.068;2023-09-30T15:36:59;26.70;75.00
29917;DHT22;16786;49.466;11.068;2023-09-30T15:39:26;26.40;75.90